Time;durP1;ratioP1;P1;durP2;ratioP2;P2;SDS_P1;SDS_P2;PMS_P1;PMS_P2;Temp;Humidity;BMP_temperature;BMP_pressure;BME280_temperature;BME280_humidity;BME280_pressure;Samples;Min_cycle;Max_cycle;Signal;HPM_P1;HPM_P2
2022/08/21 00:01:22;;;;;;;9.35;8.38;;;;;;;29.54;51.51;100876.02;1779174;81;21022;-48
2022/08/21 00:03:49;;;;;;;8.95;8.25;;;;;;;29.55;51.57;100880.90;1779190;80;20974;-50
2022/08/21 00:06:16;;;;;;;9.05;8.18;;;;;;;29.53;51.58;100885.05;1779255;81;21054;-49
2022/08/21 00:08:43;;;;;;;9.13;8.33;;;;;;;29.52;51.60;100893.25;1779169;81;21495;-50
2022/08/21 00:11:10;;;;;;;10.13;9.05;;;;;;;29.52;51.56;100891.91;1779090;80;21006;-51
2022/08/21 00:13:39;;;;;;;9.60;8.80;;;;;;;29.52;51.63;100889.23;1779426;80;21023;-50
2022/08/21 00:16:06;;;;;;;9.58;8.63;;;;;;;29.52;51.77;100889.23;1778989;80;21011;-54
2022/08/21 00:18:33;;;;;;;8.95;8.10;;;;;;;29.49;51.89;100889.55;1779066;81;21447;-51
2022/08/21 00:20:59;;;;;;;9.20;8.43;;;;;;;29.47;51.93;100889.68;1779910;81;21058;-50
2022/08/21 00:23:26;;;;;;;9.78;8.88;;;;;;;29.46;51.96;100879.97;1779358;80;21068;-48
2022/08/21 00:25:53;;;;;;;9.40;8.60;;;;;;;29.46;51.99;100884.47;1779479;80;21015;-50
2022/08/21 00:28:20;;;;;;;8.88;8.13;;;;;;;29.45;51.98;100883.63;1779355;80;21058;-48
2022/08/21 00:30:47;;;;;;;9.15;8.25;;;;;;;29.45;52.01;100880.13;1779451;81;21031;-50
2022/08/21 00:33:13;;;;;;;9.58;8.60;;;;;;;29.44;52.10;100889.15;1779449;80;21058;-51
2022/08/21 00:35:41;;;;;;;9.80;8.40;;;;;;;29.43;52.13;100879.43;1779275;80;20999;-50
2022/08/21 00:38:08;;;;;;;10.20;8.95;;;;;;;29.42;52.24;100878.58;1780048;80;21026;-51
2022/08/21 00:40:46;;;;;;;8.73;8.03;;;;;;;29.42;52.32;100884.44;1787550;80;21069;-49
2022/08/21 00:43:16;;;;;;;9.38;8.50;;;;;;;29.42;52.41;100888.45;1787664;80;21518;-50
2022/08/21 00:45:43;;;;;;;9.43;8.63;;;;;;;29.41;52.38;100887.60;1783331;80;21053;-52
2022/08/21 00:48:10;;;;;;;9.18;8.38;;;;;;;29.41;52.42;100878.71;1767017;80;20975;-49
2022/08/21 00:50:42;;;;;;;9.55;8.65;;;;;;;29.40;52.51;100877.04;1787772;80;20998;-52
2022/08/21 00:53:09;;;;;;;9.18;8.28;;;;;;;29.40;52.55;100874.36;1787839;80;21045;-49
2022/08/21 00:55:36;;;;;;;9.35;8.48;;;;;;;29.39;52.63;100878.02;1767808;80;21088;-52
2022/08/21 00:58:05;;;;;;;10.88;9.03;;;;;;;29.38;52.67;100876.34;1787727;80;21026;-51
2022/08/21 01:00:37;;;;;;;9.55;8.73;;;;;;;29.37;52.88;100871.97;1787942;80;21045;-49
2022/08/21 01:03:09;;;;;;;9.95;9.05;;;;;;;29.35;53.02;100869.93;1787485;80;21475;-50
2022/08/21 01:05:36;;;;;;;9.58;8.58;;;;;;;29.33;53.30;100865.22;1705975;83;21030;-52
2022/08/21 01:08:04;;;;;;;10.00;9.10;;;;;;;29.32;53.40;100866.23;1706604;83;21578;-50
2022/08/21 01:10:31;;;;;;;9.28;8.38;;;;;;;29.32;53.37;100867.57;1715893;83;21023;-53
2022/08/21 01:12:58;;;;;;;9.10;8.30;;;;;;;29.31;53.38;100869.89;1685553;83;21022;-50
2022/08/21 01:15:30;;;;;;;9.78;8.88;;;;;;;29.29;53.42;100871.39;1704058;83;21089;-54
2022/08/21 01:17:57;;;;;;;9.10;8.30;;;;;;;29.28;53.52;100875.56;1705781;83;21154;-53
2022/08/21 01:20:24;;;;;;;9.75;8.80;;;;;;;29.27;53.56;100869.84;1707386;83;21030;-51
2022/08/21 01:22:51;;;;;;;9.13;8.23;;;;;;;29.26;53.58;100865.49;1708508;83;21066;-49
2022/08/21 01:25:21;;;;;;;8.58;7.85;;;;;;;29.25;53.61;100867.81;1707346;83;21085;-51
2022/08/21 01:27:48;;;;;;;10.75;8.60;;;;;;;29.25;53.71;100863.79;1706445;83;21081;-50
2022/08/21 01:30:22;;;;;;;9.30;8.53;;;;;;;29.24;53.78;100860.78;1721237;83;21014;-49
2022/08/21 01:32:49;;;;;;;10.28;8.70;;;;;;;29.26;53.82;100863.66;1710380;83;21045;-52
2022/08/21 01:35:17;;;;;;;9.23;8.25;;;;;;;29.27;53.98;100852.42;1712382;83;21555;-49
2022/08/21 01:37:44;;;;;;;9.63;8.73;;;;;;;29.26;54.11;100854.77;1709387;83;21098;-49
2022/08/21 01:40:11;;;;;;;10.18;9.23;;;;;;;29.24;54.28;100856.27;1709357;83;21038;-53
2022/08/21 01:42:38;;;;;;;9.95;8.80;;;;;;;29.23;54.37;100856.39;1709286;83;21014;-50
2022/08/21 01:45:07;;;;;;;10.10;9.00;;;;;;;29.23;54.49;100857.73;1707762;83;21026;-52
2022/08/21 01:47:33;;;;;;;9.73;8.83;;;;;;;29.22;54.52;100861.42;1709118;83;21053;-49
2022/08/21 01:50:00;;;;;;;8.90;8.15;;;;;;;29.21;54.58;100863.75;1707076;83;21054;-52
2022/08/21 01:52:27;;;;;;;10.28;9.38;;;;;;;29.19;54.53;100855.02;1712471;83;21010;-50
2022/08/21 01:54:53;;;;;;;9.60;8.75;;;;;;;29.17;54.53;100860.53;1703154;83;21571;-51
2022/08/21 01:57:20;;;;;;;10.13;9.28;;;;;;;29.16;54.52;100863.37;1707492;83;21042;-49
2022/08/21 01:59:47;;;;;;;9.00;8.30;;;;;;;29.12;54.61;100862.77;1709534;83;21058;-49
2022/08/21 02:02:14;;;;;;;10.98;9.28;;;;;;;29.09;54.70;100865.77;1737577;80;21056;-51
2022/08/21 02:04:41;;;;;;;10.20;9.30;;;;;;;29.06;54.60;100864.70;1787479;80;21489;-51
2022/08/21 02:07:07;;;;;;;11.20;9.68;;;;;;;29.04;54.58;100868.03;1787714;80;21105;-52
2022/08/21 02:09:35;;;;;;;9.63;8.70;;;;;;;29.01;54.54;100870.17;1787740;80;21022;-54
2022/08/21 02:12:03;;;;;;;10.72;9.03;;;;;;;28.97;54.33;100870.45;1787698;80;21081;-49
2022/08/21 02:14:30;;;;;;;10.58;9.68;;;;;;;28.94;54.32;100880.14;1788089;80;21554;-50
2022/08/21 02:16:57;;;;;;;9.68;8.70;;;;;;;28.90;54.37;100874.73;1787670;80;21021;-49
2022/08/21 02:19:23;;;;;;;10.03;9.10;;;;;;;28.86;54.48;100874.69;1787300;80;21048;-50
2022/08/21 02:21:50;;;;;;;10.88;9.53;;;;;;;28.84;54.60;100872.65;1787446;80;21061;-49
2022/08/21 02:24:17;;;;;;;11.53;9.30;;;;;;;28.82;54.69;100871.10;1787650;80;21515;-54
2022/08/21 02:26:43;;;;;;;14.00;9.98;;;;;;;28.78;54.72;100867.03;1787693;80;21081;-51
2022/08/21 02:29:10;;;;;;;10.85;9.85;;;;;;;28.76;54.69;100872.55;1787478;80;21014;-48
2022/08/21 02:31:37;;;;;;;10.10;9.10;;;;;;;28.74;54.77;100866.48;1787692;80;21018;-50
2022/08/21 02:34:04;;;;;;;10.75;9.58;;;;;;;28.75;54.83;100862.80;1787549;80;21089;-50
2022/08/21 02:36:31;;;;;;;9.85;8.95;;;;;;;28.71;54.97;100862.75;1787353;80;21490;-53
2022/08/21 02:38:57;;;;;;;9.70;8.88;;;;;;;28.68;55.03;100865.73;1787437;80;21057;-49
2022/08/21 02:41:24;;;;;;;10.88;9.33;;;;;;;28.67;55.06;100870.73;1785525;80;20974;-50
2022/08/21 02:43:50;;;;;;;10.98;9.93;;;;;;;28.64;55.16;100872.86;1787572;80;21522;-48
2022/08/21 02:46:19;;;;;;;10.72;9.63;;;;;;;28.60;55.39;100875.00;1787339;80;21018;-53
2022/08/21 02:48:46;;;;;;;10.80;9.78;;;;;;;28.57;55.53;100879.29;1787711;80;21032;-48
2022/08/21 02:51:19;;;;;;;10.00;9.03;;;;;;;28.56;55.56;100874.95;1787541;80;21030;-51
2022/08/21 02:53:47;;;;;;;10.93;10.03;;;;;;;28.55;55.71;100875.88;1787755;80;20982;-52
2022/08/21 02:56:16;;;;;;;10.50;9.55;;;;;;;28.54;55.84;100875.52;1787350;80;21455;-50
2022/08/21 02:58:46;;;;;;;10.35;9.40;;;;;;;28.51;56.04;100875.83;1787742;80;21010;-52
2022/08/21 03:01:13;;;;;;;11.18;10.32;;;;;;;28.48;56.27;100874.77;1787976;80;21002;-53
2022/08/21 03:03:42;;;;;;;10.32;9.33;;;;;;;28.48;56.33;100872.60;1787370;80;21478;-49
2022/08/21 03:06:11;;;;;;;10.25;9.33;;;;;;;28.47;56.41;100875.77;1787665;80;20955;-49
2022/08/21 03:08:37;;;;;;;9.80;9.00;;;;;;;28.45;56.56;100877.75;1787632;80;20967;-50
2022/08/21 03:11:05;;;;;;;10.80;9.88;;;;;;;28.45;56.56;100883.58;1787417;80;21030;-51
2022/08/21 03:13:32;;;;;;;10.30;9.18;;;;;;;28.43;56.70;100874.37;1787479;80;21002;-49
2022/08/21 03:15:59;;;;;;;10.68;9.65;;;;;;;28.41;56.64;100875.01;1787458;80;21534;-50
2022/08/21 03:18:25;;;;;;;10.80;9.90;;;;;;;28.39;56.65;100882.34;1787743;80;20995;-49
2022/08/21 03:20:53;;;;;;;10.88;9.75;;;;;;;28.38;56.70;100870.45;1787507;80;21018;-50
2022/08/21 03:23:20;;;;;;;10.78;9.78;;;;;;;28.37;56.82;100878.97;1787406;80;21467;-49
2022/08/21 03:25:48;;;;;;;10.28;9.38;;;;;;;28.38;57.02;100869.93;1787521;80;21002;-49
2022/08/21 03:28:18;;;;;;;10.30;9.50;;;;;;;28.37;57.23;100880.30;1787490;80;21026;-53
2022/08/21 03:30:46;;;;;;;11.28;10.18;;;;;;;28.36;57.51;100886.62;1787677;80;21018;-49
2022/08/21 03:33:13;;;;;;;11.18;10.08;;;;;;;28.34;57.69;100881.91;1787835;80;21042;-50
2022/08/21 03:35:43;;;;;;;10.00;9.30;;;;;;;28.34;57.82;100887.27;1787436;80;21498;-51
2022/08/21 03:38:11;;;;;;;11.30;10.38;;;;;;;28.34;57.81;100889.13;1776420;80;21062;-49
2022/08/21 03:40:40;;;;;;;10.63;9.75;;;;;;;28.34;57.94;100889.94;1778982;80;21011;-49
2022/08/21 03:43:09;;;;;;;11.05;10.05;;;;;;;28.33;58.15;100884.74;1779035;80;21054;-48
2022/08/21 03:45:35;;;;;;;11.40;10.50;;;;;;;28.33;58.25;100891.44;1779355;80;21062;-49
2022/08/21 03:48:04;;;;;;;10.70;9.80;;;;;;;28.33;58.31;100888.27;1779076;80;21050;-50
2022/08/21 03:50:34;;;;;;;11.18;10.13;;;;;;;28.33;58.30;100888.27;1779346;80;21041;-51
2022/08/21 03:53:01;;;;;;;11.03;10.03;;;;;;;28.32;58.33;100882.55;1759786;81;21023;-50
2022/08/21 03:55:28;;;;;;;11.10;10.10;;;;;;;28.32;58.32;100885.23;1779320;80;21069;-51
2022/08/21 03:57:55;;;;;;;10.55;9.63;;;;;;;28.34;58.55;100886.45;1779544;81;20998;-49
2022/08/21 04:00:23;;;;;;;10.50;9.50;;;;;;;28.34;58.56;100892.62;1779115;80;21451;-49
2022/08/21 04:02:50;;;;;;;11.25;10.25;;;;;;;28.33;58.55;100896.30;1779416;80;21053;-49
2022/08/21 04:05:29;;;;;;;9.80;9.00;;;;;;;28.32;58.57;100886.56;1779118;80;21015;-53
2022/08/21 04:07:57;;;;;;;11.90;10.80;;;;;;;28.32;58.73;100895.94;1770716;80;21057;-51
2022/08/21 04:10:25;;;;;;;12.37;9.78;;;;;;;28.33;58.75;100886.93;1774657;81;21053;-52
2022/08/21 04:12:52;;;;;;;11.08;9.60;;;;;;;28.35;58.77;100891.64;1779250;81;21066;-51
2022/08/21 04:15:20;;;;;;;11.60;10.50;;;;;;;28.36;58.73;100893.32;1779029;80;21062;-51
2022/08/21 04:17:48;;;;;;;10.60;9.60;;;;;;;28.36;58.77;100901.34;1779506;80;20935;-53
2022/08/21 04:20:18;;;;;;;10.45;9.60;;;;;;;28.37;58.77;100898.19;1779019;80;21011;-50
2022/08/21 04:22:45;;;;;;;10.58;9.68;;;;;;;28.37;58.78;100893.69;1779289;81;21030;-50
2022/08/21 04:25:14;;;;;;;10.78;9.78;;;;;;;28.39;58.66;100898.40;1779379;80;21062;-50
2022/08/21 04:27:41;;;;;;;11.43;10.30;;;;;;;28.42;58.41;100900.77;1779392;80;21522;-50
2022/08/21 04:30:10;;;;;;;10.58;9.53;;;;;;;28.44;58.24;100898.80;1779596;81;21018;-52
2022/08/21 04:32:37;;;;;;;10.65;9.55;;;;;;;28.43;58.01;100899.80;1779291;80;21011;-53
2022/08/21 04:35:08;;;;;;;11.43;10.30;;;;;;;28.46;57.92;100904.03;1779121;80;21010;-50
2022/08/21 04:37:35;;;;;;;10.03;9.08;;;;;;;28.45;57.62;100897.83;1781245;80;21100;-49
2022/08/21 04:40:04;;;;;;;11.57;10.58;;;;;;;28.45;57.38;100905.85;1787282;80;21086;-51
2022/08/21 04:42:32;;;;;;;10.38;9.55;;;;;;;28.46;57.24;100909.38;1787661;80;21033;-48
2022/08/21 04:44:58;;;;;;;10.88;9.88;;;;;;;28.44;57.31;100909.50;1781012;80;21042;-51
2022/08/21 04:47:25;;;;;;;11.12;10.23;;;;;;;28.46;57.24;100912.88;1787343;80;20975;-49
2022/08/21 04:49:53;;;;;;;13.83;9.55;;;;;;;28.46;57.23;100910.20;1785836;80;21522;-50
2022/08/21 04:52:22;;;;;;;10.75;9.85;;;;;;;28.47;57.28;100905.70;1787593;80;20999;-49
2022/08/21 04:54:48;;;;;;;11.35;9.70;;;;;;;28.49;57.28;100914.43;1787340;80;21050;-51
2022/08/21 04:57:15;;;;;;;10.60;9.60;;;;;;;28.52;57.30;100923.01;1787663;80;21065;-50
2022/08/21 04:59:48;;;;;;;11.22;10.32;;;;;;;28.56;57.35;100923.13;1787389;80;21538;-49
2022/08/21 05:02:16;;;;;;;10.80;9.90;;;;;;;28.57;57.38;100915.44;1727872;82;21062;-48
2022/08/21 05:04:48;;;;;;;12.10;10.93;;;;;;;28.62;57.40;100913.19;1730471;82;21018;-50
2022/08/21 05:07:19;;;;;;;11.53;10.43;;;;;;;28.66;57.39;100909.71;1730808;82;21063;-49
2022/08/21 05:09:46;;;;;;;10.68;9.78;;;;;;;28.70;57.44;100907.94;1730889;82;21034;-49
2022/08/21 05:12:13;;;;;;;11.70;10.60;;;;;;;28.75;57.46;100908.33;1728604;82;21023;-53
2022/08/21 05:14:42;;;;;;;11.63;10.58;;;;;;;28.79;57.48;100903.03;1731833;82;21071;-52
2022/08/21 05:17:09;;;;;;;11.78;10.78;;;;;;;28.82;57.44;100905.43;1732132;82;21041;-51
2022/08/21 05:19:36;;;;;;;11.45;10.28;;;;;;;28.85;57.38;100914.50;1726374;82;21026;-51
2022/08/21 05:22:03;;;;;;;10.38;9.48;;;;;;;28.87;57.28;100915.20;1728539;82;21023;-50
2022/08/21 05:24:29;;;;;;;11.75;10.55;;;;;;;28.92;57.34;100918.29;1734911;82;21081;-49
2022/08/21 05:26:56;;;;;;;11.50;10.50;;;;;;;28.95;57.30;100909.94;1727537;82;21455;-49
2022/08/21 05:29:23;;;;;;;13.58;11.10;;;;;;;29.02;57.28;100906.70;1730730;82;21038;-52
2022/08/21 05:31:49;;;;;;;11.63;10.58;;;;;;;29.06;57.10;100902.73;1730440;82;21074;-50
2022/08/21 05:34:21;;;;;;;11.08;10.08;;;;;;;29.10;57.08;100908.15;1731908;82;21031;-53
2022/08/21 05:36:47;;;;;;;11.53;10.43;;;;;;;29.16;57.09;100906.25;1729787;82;20979;-52
2022/08/21 05:39:14;;;;;;;11.28;10.28;;;;;;;29.22;57.04;100908.33;1729579;82;21098;-50
2022/08/21 05:41:41;;;;;;;11.18;10.18;;;;;;;29.27;56.99;100910.05;1737188;82;21534;-52
2022/08/21 05:44:08;;;;;;;11.83;10.85;;;;;;;29.34;56.86;100909.81;1736271;82;21507;-52
2022/08/21 05:46:35;;;;;;;11.83;10.58;;;;;;;29.40;56.73;100907.87;1733942;82;21499;-49
2022/08/21 05:49:02;;;;;;;11.57;10.48;;;;;;;29.45;56.64;100906.94;1730130;82;21046;-50
2022/08/21 05:51:29;;;;;;;11.33;10.32;;;;;;;29.51;56.54;100899.11;1734426;82;21054;-51
2022/08/21 05:53:56;;;;;;;11.20;10.20;;;;;;;29.57;56.50;100904.38;1733810;82;21062;-50
2022/08/21 05:56:23;;;;;;;11.73;10.63;;;;;;;29.61;56.42;100894.52;1730034;82;21042;-50
2022/08/21 05:58:49;;;;;;;12.10;11.00;;;;;;;29.66;56.28;100894.06;1744303;80;21018;-49
2022/08/21 06:01:16;;;;;;;11.15;10.05;;;;;;;29.71;56.20;100902.52;1792875;80;21495;-52
2022/08/21 06:03:42;;;;;;;11.40;10.30;;;;;;;29.74;56.22;100900.39;1792727;80;21018;-50
2022/08/21 06:06:09;;;;;;;11.60;10.60;;;;;;;29.81;56.24;100903.31;1792829;80;21522;-50
2022/08/21 06:08:37;;;;;;;11.68;10.38;;;;;;;29.88;56.06;100905.75;1792560;80;21475;-48
2022/08/21 06:11:05;;;;;;;11.30;10.28;;;;;;;29.95;56.05;100901.43;1792689;80;21018;-52
2022/08/21 06:13:33;;;;;;;11.03;10.05;;;;;;;30.04;56.05;100901.86;1792965;80;20990;-55
2022/08/21 06:16:10;;;;;;;11.80;10.65;;;;;;;30.16;55.81;100911.35;1792727;80;21525;-50
2022/08/21 06:18:37;;;;;;;11.70;10.60;;;;;;;30.26;55.56;100904.05;1792613;80;20982;-53
2022/08/21 06:21:05;;;;;;;11.65;10.48;;;;;;;30.37;55.32;100913.24;1792889;80;21013;-51
2022/08/21 06:23:32;;;;;;;11.60;10.58;;;;;;;30.48;55.04;100913.45;1792825;80;21471;-52
2022/08/21 06:25:59;;;;;;;11.03;10.13;;;;;;;30.59;54.82;100915.05;1793249;80;20982;-51
2022/08/21 06:28:26;;;;;;;12.05;10.85;;;;;;;30.73;54.62;100919.87;1793075;80;21522;-49
2022/08/21 06:30:52;;;;;;;10.88;10.00;;;;;;;30.85;54.33;100922.66;1792700;80;21010;-50
2022/08/21 06:33:19;;;;;;;11.33;10.30;;;;;;;30.94;54.06;100918.98;1793180;80;20994;-52
2022/08/21 06:35:46;;;;;;;10.93;9.93;;;;;;;31.01;53.86;100918.70;1792676;80;21033;-50
2022/08/21 06:38:12;;;;;;;12.33;11.20;;;;;;;31.08;53.99;100921.07;1791389;80;21074;-50
2022/08/21 06:40:40;;;;;;;12.25;10.70;;;;;;;31.16;53.72;100918.45;1787353;80;21021;-49
2022/08/21 06:43:11;;;;;;;12.95;11.63;;;;;;;31.23;53.42;100920.81;1787501;80;20983;-49
2022/08/21 06:45:39;;;;;;;11.85;10.43;;;;;;;31.29;53.22;100917.47;1787787;80;21054;-53
2022/08/21 06:48:06;;;;;;;11.08;10.08;;;;;;;31.35;53.03;100910.63;1787315;80;21015;-49
2022/08/21 06:50:34;;;;;;;12.33;10.30;;;;;;;31.38;52.89;100912.47;1787981;80;21482;-54
2022/08/21 06:53:08;;;;;;;12.45;11.12;;;;;;;31.42;52.75;100915.20;1787543;80;20959;-52
2022/08/21 06:55:36;;;;;;;11.33;10.40;;;;;;;31.44;52.95;100914.55;1784544;80;21030;-49
2022/08/21 06:58:04;;;;;;;11.73;10.58;;;;;;;31.46;53.00;100907.16;1787395;80;21003;-52
2022/08/21 07:00:31;;;;;;;10.15;9.08;;;;;;;31.51;52.97;100914.20;1787520;80;21033;-52
2022/08/21 07:02:58;;;;;;;11.48;10.48;;;;;;;31.53;52.95;100916.23;1787742;80;21045;-50
2022/08/21 07:05:28;;;;;;;11.15;10.25;;;;;;;31.56;52.87;100911.87;1787411;80;21030;-53
2022/08/21 07:07:55;;;;;;;11.68;10.25;;;;;;;31.59;52.93;100914.26;1766991;80;20987;-52
2022/08/21 07:10:22;;;;;;;11.48;10.48;;;;;;;31.62;52.97;100913.91;1787449;80;21053;-49
2022/08/21 07:12:50;;;;;;;11.50;10.50;;;;;;;31.68;52.83;100907.87;1787883;80;21018;-51
2022/08/21 07:15:18;;;;;;;11.75;10.53;;;;;;;31.76;52.61;100913.27;1787355;80;20983;-50
2022/08/21 07:17:44;;;;;;;10.78;9.93;;;;;;;31.80;52.53;100914.61;1787440;80;21510;-51
2022/08/21 07:20:11;;;;;;;10.50;9.50;;;;;;;31.82;52.48;100909.91;1787348;80;21046;-51
2022/08/21 07:22:38;;;;;;;11.50;10.30;;;;;;;31.83;52.62;100915.64;1787957;80;21013;-51
2022/08/21 07:25:06;;;;;;;10.72;9.80;;;;;;;31.86;52.63;100917.98;1787480;80;21010;-50
2022/08/21 07:27:33;;;;;;;11.08;9.95;;;;;;;31.92;52.54;100918.66;1787773;80;20960;-51
2022/08/21 07:30:00;;;;;;;11.12;10.13;;;;;;;32.00;52.45;100913.34;1787291;80;21030;-51
2022/08/21 07:32:26;;;;;;;13.00;10.15;;;;;;;32.14;52.34;100915.02;1787621;80;20994;-49
2022/08/21 07:34:54;;;;;;;12.23;10.35;;;;;;;32.25;52.08;100918.23;1787369;80;21030;-49
2022/08/21 07:37:21;;;;;;;11.70;10.32;;;;;;;32.34;51.91;100912.31;1787459;80;21016;-52
2022/08/21 07:39:48;;;;;;;10.60;9.78;;;;;;;32.40;51.79;100914.33;1780650;80;21105;-53
2022/08/21 07:42:16;;;;;;;11.20;10.05;;;;;;;32.46;51.64;100917.75;1758853;80;21517;-51
2022/08/21 07:44:42;;;;;;;11.08;9.98;;;;;;;32.48;51.50;100917.07;1769314;81;21030;-50
2022/08/21 07:47:09;;;;;;;11.40;10.40;;;;;;;32.48;51.37;100917.07;1777116;81;21002;-49
2022/08/21 07:49:36;;;;;;;11.48;10.25;;;;;;;32.49;51.36;100916.05;1779127;81;21022;-50
2022/08/21 07:52:04;;;;;;;10.65;9.50;;;;;;;32.47;51.16;100912.18;1779260;80;21546;-51
2022/08/21 07:54:31;;;;;;;10.43;9.40;;;;;;;32.45;51.19;100915.52;1779074;81;21018;-49
2022/08/21 07:56:58;;;;;;;10.95;10.03;;;;;;;32.45;51.38;100912.83;1779268;80;21018;-51
2022/08/21 07:59:25;;;;;;;10.35;9.23;;;;;;;32.46;51.32;100912.36;1758592;80;21011;-53
2022/08/21 08:01:51;;;;;;;13.45;9.18;;;;;;;32.45;51.46;100912.83;1779431;81;21604;-49
2022/08/21 08:04:18;;;;;;;9.95;8.68;;;;;;;32.49;51.50;100913.34;1779344;80;21058;-51
2022/08/21 08:06:45;;;;;;;9.23;8.33;;;;;;;32.54;51.50;100905.61;1758898;80;21011;-53
2022/08/21 08:09:12;;;;;;;7.95;7.25;;;;;;;32.58;51.50;100906.95;1779496;81;21522;-55
2022/08/21 08:11:42;;;;;;;8.05;7.25;;;;;;;32.64;51.27;100906.27;1779403;80;21546;-51
2022/08/21 08:14:10;;;;;;;8.70;7.92;;;;;;;32.69;51.07;100913.30;1779484;80;21514;-50
2022/08/21 08:16:37;;;;;;;12.73;8.20;;;;;;;32.75;51.02;100912.11;1779322;80;21046;-53
2022/08/21 08:19:04;;;;;;;8.25;7.65;;;;;;;32.80;50.89;100911.61;1779132;80;21046;-53
2022/08/21 08:21:32;;;;;;;9.00;8.30;;;;;;;32.85;50.89;100909.25;1779156;80;21035;-53
2022/08/21 08:24:00;;;;;;;9.85;8.55;;;;;;;32.91;50.71;100910.40;1779481;81;21562;-49
2022/08/21 08:26:28;;;;;;;9.60;8.73;;;;;;;32.96;50.74;100913.40;1779174;80;21058;-51
2022/08/21 08:28:54;;;;;;;8.53;7.83;;;;;;;33.00;50.84;100912.92;1778862;81;21126;-51
2022/08/21 08:31:21;;;;;;;9.85;9.05;;;;;;;33.04;50.88;100911.55;1779261;80;21066;-53
2022/08/21 08:33:48;;;;;;;10.15;9.10;;;;;;;33.08;50.71;100915.58;1779193;80;21062;-51
2022/08/21 08:36:17;;;;;;;8.80;8.03;;;;;;;33.09;50.63;100911.88;1779204;80;21015;-54
2022/08/21 08:38:44;;;;;;;8.28;7.58;;;;;;;33.12;50.92;100910.17;1781351;80;21042;-51
2022/08/21 08:41:18;;;;;;;9.03;7.28;;;;;;;33.18;51.02;100910.81;1787597;80;21069;-52
2022/08/21 08:43:53;;;;;;;7.58;6.97;;;;;;;33.24;50.36;100913.34;1787835;80;21022;-54
2022/08/21 08:46:27;;;;;;;7.40;6.70;;;;;;;33.29;49.37;100913.14;1677323;84;21530;-48
2022/08/21 08:48:59;;;;;;;8.10;7.30;;;;;;;33.33;48.78;100907.72;1665417;85;21054;-53
2022/08/21 08:51:40;;;;;;;7.45;6.75;;;;;;;33.39;47.71;100911.56;1661370;85;21066;-49
2022/08/21 08:54:12;;;;;;;7.55;6.78;;;;;;;33.40;47.40;100909.21;1661194;85;21093;-50
2022/08/21 08:56:39;;;;;;;7.15;6.62;;;;;;;33.41;46.97;100909.03;1643903;86;21070;-52
2022/08/21 08:59:19;;;;;;;8.23;7.47;;;;;;;33.43;46.84;100906.14;1669558;86;21085;-52
2022/08/21 09:01:46;;;;;;;7.87;7.17;;;;;;;33.42;46.66;100903.98;1641890;87;21009;-49
2022/08/21 09:04:13;;;;;;;8.05;7.42;;;;;;;33.39;46.64;100900.27;1641059;87;21610;-51
2022/08/21 09:06:57;;;;;;;6.95;6.45;;;;;;;33.37;46.95;100891.52;1643480;87;21033;-49
2022/08/21 09:09:45;;;;;;;7.40;6.75;;;;;;;33.36;47.45;100892.55;1642676;87;21601;-51
2022/08/21 09:12:40;;;;;;;7.22;6.60;;;;;;;33.37;47.14;100894.21;1642888;87;21305;-51
2022/08/21 09:15:42;;;;;;;7.37;6.72;;;;;;;33.38;47.39;100888.31;1638580;87;21074;-53
2022/08/21 09:18:34;;;;;;;8.03;6.78;;;;;;;33.37;48.15;100890.17;1634542;87;21041;-51
2022/08/21 09:21:36;;;;;;;6.90;6.40;;;;;;;33.37;48.47;100888.81;1636602;87;21506;-51
2022/08/21 09:24:20;;;;;;;7.67;6.78;;;;;;;33.37;49.04;100884.77;1651416;84;21068;-51
2022/08/21 09:26:58;;;;;;;6.67;6.00;;;;;;;33.40;49.28;100885.78;1659837;86;21049;-49
2022/08/21 09:29:28;;;;;;;7.15;5.78;;;;;;;33.46;48.68;100881.52;1641823;86;21117;-50
2022/08/21 09:31:54;;;;;;;6.22;5.72;;;;;;;33.47;48.31;100882.69;1653884;86;21140;-51
2022/08/21 09:34:31;;;;;;;5.25;4.75;;;;;;;33.47;48.38;100879.98;1649302;86;21033;-50
2022/08/21 09:36:58;;;;;;;5.65;5.15;;;;;;;33.49;48.10;100875.28;1654856;86;21094;-51
2022/08/21 09:39:30;;;;;;;4.78;4.30;;;;;;;33.50;47.77;100874.28;1655589;86;21067;-51
2022/08/21 09:42:04;;;;;;;5.37;4.87;;;;;;;33.49;47.36;100873.94;1657026;86;21067;-51
2022/08/21 09:44:39;;;;;;;4.92;4.53;;;;;;;33.49;47.41;100883.38;1608286;89;21652;-50
2022/08/21 09:47:04;;;;;;;4.83;4.25;;;;;;;33.52;47.70;100878.99;1578760;91;21069;-50
2022/08/21 09:49:36;;;;;;;5.28;4.30;;;;;;;33.56;47.53;100872.22;1609875;89;21129;-51
2022/08/21 09:52:06;;;;;;;;;;;;;;;33.60;47.71;100868.14;1582915;90;21105;-51
2022/08/21 09:54:36;;;;;;;4.65;4.25;;;;;;;33.63;48.00;100866.42;1550151;92;20128;-52
2022/08/21 10:00:25;;;;;;;5.60;4.15;;;;;;;33.70;48.17;100863.84;1558962;91;21633;-48
2022/08/21 10:02:51;;;;;;;4.28;3.87;;;;;;;33.74;48.22;100863.81;1557067;91;21077;-50
2022/08/21 10:05:23;;;;;;;4.47;4.08;;;;;;;33.76;48.36;100856.91;1539488;91;21176;-52
2022/08/21 10:07:50;;;;;;;4.60;4.17;;;;;;;33.76;47.99;100855.56;1559085;91;21080;-48
2022/08/21 10:10:32;;;;;;;6.58;3.90;;;;;;;33.76;48.26;100848.81;1556602;91;21116;-52
2022/08/21 10:13:22;;;;;;;9.65;4.33;;;;;;;33.74;48.29;100850.32;1557148;91;21065;-50
2022/08/21 10:16:26;;;;;;;7.80;3.97;;;;;;;33.80;48.33;100848.78;1559373;91;21085;-51
2022/08/21 10:19:28;;;;;;;6.92;3.70;;;;;;;33.82;48.67;100848.91;1553002;92;21088;-51
2022/08/21 10:22:25;;;;;;;5.92;3.70;;;;;;;33.79;48.13;100837.64;1545997;92;21193;-51
2022/08/21 10:25:21;;;;;;;4.25;3.42;;;;;;;33.83;48.11;100837.61;1548448;92;21148;-50
2022/08/21 10:28:06;;;;;;;8.13;3.80;;;;;;;33.85;47.90;100839.11;1524174;92;21184;-50
2022/08/21 10:30:54;;;;;;;6.58;3.72;;;;;;;33.85;47.85;100838.27;1524833;94;21617;-51
2022/08/21 10:33:41;;;;;;;10.08;4.95;;;;;;;33.83;48.37;100834.91;1554193;92;21584;-49
2022/08/21 10:36:22;;;;;;;10.75;4.83;;;;;;;33.79;49.06;100836.29;1554456;92;21056;-50
2022/08/21 10:39:12;;;;;;;11.63;5.20;;;;;;;33.74;49.40;100842.76;1554518;92;21039;-52
2022/08/21 10:42:08;;;;;;;9.90;5.07;;;;;;;33.76;49.17;100844.77;1554237;92;21098;-52
2022/08/21 10:45:05;;;;;;;9.98;5.05;;;;;;;33.69;49.35;100849.19;1556641;92;21340;-53
2022/08/21 10:47:41;;;;;;;9.95;5.35;;;;;;;33.63;49.58;100853.46;1529068;93;21104;-50
2022/08/21 10:50:16;;;;;;;8.63;5.28;;;;;;;33.59;49.72;100856.19;1517752;94;21106;-52
2022/08/21 10:53:08;;;;;;;11.50;5.65;;;;;;;33.57;49.82;100851.48;1481512;94;21082;-53
2022/08/21 10:55:52;;;;;;;11.38;5.47;;;;;;;33.53;50.14;100852.33;1423492;98;21710;-49
2022/08/21 10:58:25;;;;;;;9.73;4.97;;;;;;;33.49;50.12;100852.35;1449084;95;21166;-52
2022/08/21 11:00:55;;;;;;;15.75;6.20;;;;;;;33.47;50.18;100857.05;1505623;94;21137;-54
2022/08/21 11:03:33;;;;;;;10.82;5.22;;;;;;;33.47;49.94;100854.36;1530896;94;21063;-54
2022/08/21 11:06:20;;;;;;;12.03;5.45;;;;;;;33.46;49.68;100851.34;1500066;94;21105;-48
2022/08/21 11:09:00;;;;;;;10.98;5.08;;;;;;;33.44;49.93;100852.53;1499784;95;21202;-49
2022/08/21 11:11:36;;;;;;;13.30;5.22;;;;;;;33.46;49.99;100857.24;1484077;96;21069;-56
2022/08/21 11:14:11;;;;;;;8.00;4.62;;;;;;;33.49;49.87;100852.35;1507110;94;21074;-52
2022/08/21 11:16:59;;;;;;;10.60;5.35;;;;;;;33.52;49.65;100854.71;1508852;94;21095;-51
2022/08/21 11:19:40;;;;;;;13.28;5.20;;;;;;;33.56;49.61;100855.18;1506979;94;21095;-50
2022/08/21 11:22:40;;;;;;;16.82;4.75;;;;;;;33.60;49.11;100856.50;1450070;96;21117;-50
2022/08/21 11:25:32;;;;;;;11.95;5.42;;;;;;;33.61;49.24;100853.61;1457648;98;21141;-49
2022/08/21 11:28:23;;;;;;;10.98;4.72;;;;;;;33.64;49.35;100854.63;1423800;99;22014;-50
2022/08/21 11:31:01;;;;;;;10.58;5.28;;;;;;;33.68;49.37;100860.99;1336231;105;21193;-50
2022/08/21 11:33:43;;;;;;;11.43;4.58;;;;;;;33.69;48.51;100849.19;1319319;108;21263;-52
2022/08/21 11:36:41;;;;;;;10.40;5.03;;;;;;;33.69;48.46;100846.49;1317777;107;21159;-50
2022/08/21 11:39:16;;;;;;;12.70;4.78;;;;;;;33.71;48.63;100845.80;1325974;107;21221;-51